Menan, ID

7:16 AM MDT on October 24, 2014 (GMT -0600)
Garfield Area | Change Station
CLOSE
Current Station
Personal Weather Station
Location: Rigby, ID
Elevation: 4820 ft
Nearby Weather Stations

Elev 4820 ft 43.64 °N, 111.96 °W | Updated 23 seconds ago

Overcast
Overcast
49.9 °F
Feels Like 48 °F
N
6.0
Wind Variable Wind from South
Gusts 7.0 mph

Today
High -- | Low -- °F
--% Chance of Precip.
Yesterday
High -- | Low -- °F
Precip. -- in
7:53 AM 6:29 PM
New Moon, 0% visible
Pressure 30.08 in
Visibility 10.0 miles
Clouds Overcast 10000 ft
Windchill 48 °F
Dew Point 40 °F
Humidity 68%
Rainfall 0.00 in
Snow Depth Not available.
UV 0 out of 12
Pollen 2.70 out of 12
PM2.5 Good
Flu Activity Sporadic
METAR KRXE 241253Z AUTO 20011KT 10SM OVC100 10/03 A3013 RMK AO2 SLP184 T01000033

More Conditions Fewer Conditions

Pressure 30.08 in
Visibility 10.0 miles
Clouds Overcast 10000 ft
Windchill 48 °F
Dew Point 40 °F
Humidity 68%
Rainfall 0.00 in
Snow Depth Not available.
UV 0 out of 12
Pollen 2.70 out of 12
PM2.5 Good
Flu Activity Sporadic
METAR KRXE 241253Z AUTO 20011KT 10SM OVC100 10/03 A3013 RMK AO2 SLP184 T01000033

More Conditions Fewer Conditions

10-Day Weather Forecast

Almanac

Astronomy

Oct. 24, 2014 Rise Set
Actual Time 7:53 AM MDT 6:29 PM MDT
Civil Twilight 7:24 AM MDT 6:59 PM MDT
Nautical Twilight 6:50 AM MDT 7:32 PM MDT
Astronomical Twilight 6:17 AM MDT 8:06 PM MDT
Moon 8:37 AM MDT 7:10 PM MDT
Length of Visible Light 11h 35m
Length of Day
10h 36m
Tomorrow will be 2m 48s shorter.
New Moon, 0% of the Moon is Illuminated
Today
New Moon
Oct 30
First Quarter
Nov 6
Full
Nov 14
Last Quarter
Nov 22
New

Today's Extremes

State Highs State Lows

Community

WunderPhotos

Upload Photos

1,764,545 photos uploaded!

WunderBlogs® & News

Nearby

Air Quality

  Air Quality AQ Index Pollutant
Yesterday Good
PM2.5
Current Good
PM2.5
Friday Good
PM2.5

Snow Depth

Station Depth Elevation
Sheep Mountain 0 in 6570 ft
Pine Creek Pass 0 in 6720 ft
Crab Creek 0 in 6860 ft
Island Park 0 in 6290 ft
Somsen Ranch 0 in 6800 ft

Earthquake Activity

City Distance Mag. Time & Date
No recent earthquake activity has been reported nearby.
Minimum magnitude displayed is 2.5.

Coastal Water Temperatures

Place Temperature
No Stations Reporting

Nearby Weather Stations